createdAt,value
2018-09-14T00:00:57.044Z,7.90
2018-09-14T00:01:57.079Z,7.10
2018-09-14T00:02:57.115Z,7.50
2018-09-14T00:03:57.145Z,7.60
2018-09-14T00:04:57.181Z,7.90
2018-09-14T00:05:57.216Z,7.70
2018-09-14T00:06:57.250Z,7.60
2018-09-14T00:07:57.282Z,7.00
2018-09-14T00:08:57.316Z,7.00
2018-09-14T00:09:57.351Z,7.40
2018-09-14T00:10:57.391Z,7.00
2018-09-14T00:11:57.417Z,7.40
2018-09-14T00:12:57.450Z,7.60
2018-09-14T00:13:57.484Z,7.30
2018-09-14T00:14:57.521Z,8.90
2018-09-14T00:15:57.552Z,7.80
2018-09-14T00:16:57.587Z,7.60
2018-09-14T00:17:57.620Z,8.10
2018-09-14T00:18:57.653Z,7.00
2018-09-14T00:19:57.689Z,7.80
2018-09-14T00:20:57.722Z,7.70
2018-09-14T00:21:57.754Z,7.70
2018-09-14T00:22:57.793Z,7.80
2018-09-14T00:23:57.820Z,7.60
2018-09-14T00:24:57.855Z,7.70
2018-09-14T00:25:57.890Z,7.80
2018-09-14T00:26:57.923Z,8.10
2018-09-14T00:27:57.959Z,7.40
2018-09-14T00:28:57.991Z,7.40
2018-09-14T00:29:58.025Z,7.90
2018-09-14T00:30:58.058Z,7.90
2018-09-14T00:31:58.091Z,7.20
2018-09-14T00:32:58.135Z,6.90
2018-09-14T00:33:58.158Z,7.20
2018-09-14T00:34:58.193Z,7.40
2018-09-14T00:35:58.227Z,7.50
2018-09-14T00:36:58.259Z,6.80
2018-09-14T00:37:58.295Z,7.20
2018-09-14T00:38:58.327Z,8.30
2018-09-14T00:39:58.360Z,7.10
2018-09-14T00:40:58.396Z,7.60
2018-09-14T00:41:58.428Z,7.60
2018-09-14T00:42:58.465Z,7.50
2018-09-14T00:43:58.498Z,7.20
2018-09-14T00:44:58.528Z,7.40
2018-09-14T00:45:58.563Z,7.20
2018-09-14T00:46:58.597Z,7.40
2018-09-14T00:47:58.632Z,8.10
2018-09-14T00:48:58.665Z,6.90
2018-09-14T00:49:58.699Z,8.10
2018-09-14T00:50:58.735Z,7.00
2018-09-14T00:51:58.769Z,6.90
2018-09-14T00:52:58.800Z,7.10
2018-09-14T00:53:58.837Z,7.80
2018-09-14T00:54:58.871Z,7.90
2018-09-14T00:55:58.901Z,8.10
2018-09-14T00:56:58.936Z,7.40
2018-09-14T00:57:58.970Z,7.80
2018-09-14T00:58:59.003Z,7.40
2018-09-14T00:59:59.037Z,8.50
2018-09-14T01:00:59.072Z,8.70
2018-09-14T01:01:59.105Z,8.80
2018-09-14T01:02:59.141Z,8.60
2018-09-14T01:03:59.173Z,8.50
2018-09-14T01:04:59.210Z,8.30
2018-09-14T01:05:59.241Z,7.90
2018-09-14T01:06:59.276Z,8.10
2018-09-14T01:07:59.309Z,8.60
2018-09-14T01:08:59.343Z,9.00
2018-09-14T01:09:59.376Z,9.00
2018-09-14T01:10:59.411Z,9.60
2018-09-14T01:11:59.443Z,10.10
2018-09-14T01:12:59.480Z,9.00
2018-09-14T01:13:59.512Z,9.90
2018-09-14T01:14:59.545Z,10.60
2018-09-14T01:15:59.580Z,10.10
2018-09-14T01:16:59.613Z,9.80
2018-09-14T01:17:59.648Z,10.30
2018-09-14T01:18:59.682Z,10.40
2018-09-14T01:19:59.715Z,10.50
2018-09-14T01:20:59.749Z,11.20
2018-09-14T01:21:59.783Z,10.60
2018-09-14T01:22:59.819Z,11.20
2018-09-14T01:23:59.852Z,10.00
2018-09-14T01:24:59.885Z,10.20
2018-09-14T01:25:59.919Z,10.20
2018-09-14T01:26:59.953Z,8.90
2018-09-14T01:27:59.987Z,10.40
2018-09-14T01:29:00.022Z,9.60
2018-09-14T01:30:00.056Z,9.50
2018-09-14T01:31:00.089Z,9.10
2018-09-14T01:32:00.121Z,9.90
2018-09-14T01:33:00.156Z,9.80
2018-09-14T01:34:00.189Z,8.50
2018-09-14T01:35:00.225Z,9.20
2018-09-14T01:36:00.258Z,9.40
2018-09-14T01:37:00.292Z,9.30
2018-09-14T01:38:00.326Z,9.20
2018-09-14T01:39:00.361Z,9.00
2018-09-14T01:40:00.392Z,9.00
2018-09-14T01:41:00.427Z,8.50
2018-09-14T01:42:00.462Z,8.70
2018-09-14T01:43:00.496Z,8.80
2018-09-14T01:44:00.532Z,8.60
2018-09-14T01:45:00.562Z,9.00
2018-09-14T01:46:00.597Z,8.30
2018-09-14T01:47:00.631Z,9.00
2018-09-14T01:48:00.666Z,8.80
2018-09-14T01:49:00.699Z,9.00
2018-09-14T01:50:00.730Z,8.40
2018-09-14T01:51:00.770Z,8.50
2018-09-14T01:52:00.806Z,8.20
2018-09-14T01:53:00.834Z,8.30
2018-09-14T01:54:00.869Z,8.80
2018-09-14T01:55:00.901Z,8.80
2018-09-14T01:56:00.934Z,8.50
2018-09-14T01:57:00.967Z,8.80
2018-09-14T01:58:01.002Z,8.50
2018-09-14T01:59:01.036Z,8.60
2018-09-14T02:00:01.069Z,8.60
2018-09-14T02:01:01.103Z,8.70
2018-09-14T02:02:01.136Z,8.20
2018-09-14T02:03:01.171Z,8.60
2018-09-14T02:04:01.204Z,8.00
2018-09-14T02:05:01.236Z,8.20
2018-09-14T02:06:01.273Z,8.70
2018-09-14T02:07:01.356Z,8.50
2018-09-14T02:08:01.338Z,8.40
2018-09-14T02:09:01.372Z,8.70
2018-09-14T02:10:01.406Z,8.40
2018-09-14T02:11:01.440Z,8.50
2018-09-14T02:12:01.477Z,7.70
2018-09-14T02:13:01.508Z,8.20
2018-09-14T02:14:01.543Z,8.80
2018-09-14T02:15:01.575Z,8.50
2018-09-14T02:16:01.608Z,8.60
2018-09-14T02:17:01.642Z,8.90
2018-09-14T02:18:01.676Z,8.80
2018-09-14T02:19:01.712Z,8.00
2018-09-14T02:20:01.743Z,8.20
2018-09-14T02:21:01.777Z,9.10
2018-09-14T02:22:01.811Z,8.30
2018-09-14T02:23:01.845Z,9.20
2018-09-14T02:24:01.879Z,9.60
2018-09-14T02:25:01.914Z,8.60
2018-09-14T02:26:01.946Z,9.20
2018-09-14T02:27:01.981Z,8.40
2018-09-14T02:28:02.012Z,8.70
2018-09-14T02:29:02.048Z,8.00
2018-09-14T02:30:02.106Z,8.50
2018-09-14T02:31:02.117Z,8.70
2018-09-14T02:32:02.149Z,7.90
2018-09-14T02:33:02.181Z,8.10
2018-09-14T02:34:02.217Z,9.10
2018-09-14T02:35:02.249Z,8.90
2018-09-14T02:36:02.287Z,7.90
2018-09-14T02:37:02.319Z,7.60
2018-09-14T02:38:02.350Z,8.30
2018-09-14T02:39:02.387Z,8.30
2018-09-14T02:40:02.418Z,7.70
2018-09-14T02:41:02.452Z,8.00
2018-09-14T02:42:02.485Z,8.40
2018-09-14T02:43:02.520Z,8.70
2018-09-14T02:44:02.556Z,8.10
2018-09-14T02:45:02.591Z,8.00
2018-09-14T02:46:02.621Z,7.90
2018-09-14T02:47:02.655Z,8.40
2018-09-14T02:48:02.689Z,8.50
2018-09-14T02:49:02.723Z,8.90
2018-09-14T02:50:02.761Z,8.00
2018-09-14T02:51:02.790Z,8.00
2018-09-14T02:52:02.825Z,8.30
2018-09-14T02:53:02.858Z,8.50
2018-09-14T02:54:02.893Z,8.10
2018-09-14T02:55:02.925Z,8.00
2018-09-14T02:56:02.959Z,8.30
2018-09-14T02:57:02.995Z,8.40
2018-09-14T02:58:03.027Z,8.40
2018-09-14T02:59:03.061Z,8.50
2018-09-14T03:00:03.109Z,8.90
2018-09-14T03:01:03.127Z,9.20
2018-09-14T03:02:03.162Z,8.70
2018-09-14T03:03:03.195Z,8.50
2018-09-14T03:04:03.236Z,8.20
2018-09-14T03:05:03.263Z,8.20
2018-09-14T03:06:03.296Z,8.00
2018-09-14T03:07:03.331Z,8.20
2018-09-14T03:08:03.364Z,7.00
2018-09-14T03:09:03.397Z,8.20
2018-09-14T03:10:03.433Z,7.90
2018-09-14T03:11:03.467Z,7.70
2018-09-14T03:12:03.500Z,7.20
2018-09-14T03:13:03.533Z,8.40
2018-09-14T03:14:03.567Z,7.60
2018-09-14T03:15:03.601Z,8.30
2018-09-14T03:16:03.633Z,8.20
2018-09-14T03:17:03.668Z,7.70
2018-09-14T03:18:03.702Z,8.20
2018-09-14T03:19:03.737Z,8.10
2018-09-14T03:20:03.769Z,8.10
2018-09-14T03:21:03.802Z,9.20
2018-09-14T03:22:03.836Z,8.50
2018-09-14T03:23:03.871Z,8.10
2018-09-14T03:24:03.904Z,8.00
2018-09-14T03:25:03.942Z,7.70
2018-09-14T03:26:03.971Z,8.00
2018-09-14T03:27:04.006Z,7.70
2018-09-14T03:28:04.038Z,8.00
2018-09-14T03:29:04.076Z,8.30
2018-09-14T03:30:04.108Z,8.10
2018-09-14T03:31:04.141Z,8.90
2018-09-14T03:32:04.180Z,8.10
2018-09-14T03:33:04.207Z,7.80
2018-09-14T03:34:04.241Z,6.80
2018-09-14T03:35:04.277Z,7.20
2018-09-14T03:36:04.309Z,8.00
2018-09-14T03:37:04.342Z,7.70
2018-09-14T03:38:04.376Z,8.00
2018-09-14T03:39:04.414Z,7.60
2018-09-14T03:40:04.443Z,7.80
2018-09-14T03:41:04.477Z,8.10
2018-09-14T03:42:04.512Z,8.10
2018-09-14T03:43:04.545Z,8.30
2018-09-14T03:44:04.577Z,8.00
2018-09-14T03:45:04.613Z,7.90
2018-09-14T03:46:04.648Z,8.50
2018-09-14T03:47:04.685Z,8.30
2018-09-14T03:48:04.713Z,7.70
2018-09-14T03:49:04.747Z,8.30
2018-09-14T03:50:04.780Z,8.50
2018-09-14T03:51:04.818Z,8.40
2018-09-14T03:52:04.848Z,8.90
2018-09-14T03:53:04.883Z,8.90
2018-09-14T03:54:04.916Z,8.00
2018-09-14T03:55:04.952Z,7.90
2018-09-14T03:56:04.982Z,8.40
2018-09-14T03:57:05.017Z,8.20
2018-09-14T03:58:05.052Z,7.80
2018-09-14T03:59:05.084Z,8.00
2018-09-14T04:00:05.118Z,8.20
2018-09-14T04:01:05.151Z,8.40
2018-09-14T04:02:05.185Z,8.80
2018-09-14T04:03:05.221Z,8.90
2018-09-14T04:04:05.252Z,8.60
2018-09-14T04:05:05.287Z,8.10
2018-09-14T04:06:05.364Z,8.00
2018-09-14T04:07:05.353Z,8.50
2018-09-14T04:08:05.392Z,8.70
2018-09-14T04:09:05.420Z,8.10
2018-09-14T04:10:05.454Z,9.00
2018-09-14T04:11:05.488Z,8.20
2018-09-14T04:12:05.521Z,8.60
2018-09-14T04:13:05.554Z,8.70
2018-09-14T04:14:05.590Z,8.50
2018-09-14T04:15:05.622Z,8.40
2018-09-14T04:16:05.665Z,8.10
2018-09-14T04:17:05.690Z,8.50
2018-09-14T04:18:05.725Z,8.90
2018-09-14T04:19:05.764Z,7.70
2018-09-14T04:20:05.791Z,7.90
2018-09-14T04:21:05.829Z,8.10
2018-09-14T04:22:05.858Z,8.10
2018-09-14T04:23:05.895Z,8.50
2018-09-14T04:24:05.926Z,7.70
2018-09-14T04:25:05.960Z,8.10
2018-09-14T04:26:05.994Z,8.50
2018-09-14T04:27:06.027Z,7.80
2018-09-14T04:28:06.060Z,9.10
2018-09-14T04:29:06.096Z,8.70
2018-09-14T04:30:06.135Z,8.50
2018-09-14T04:31:06.230Z,8.30
2018-09-14T04:32:06.196Z,8.10
2018-09-14T04:33:06.228Z,8.70
2018-09-14T04:34:06.263Z,8.00
2018-09-14T04:35:06.297Z,8.40
2018-09-14T04:36:06.330Z,9.40
2018-09-14T04:37:06.365Z,8.90
2018-09-14T04:38:06.503Z,8.60
2018-09-14T04:39:06.432Z,9.10
2018-09-14T04:40:06.465Z,8.60
2018-09-14T04:41:06.498Z,9.40
2018-09-14T04:42:06.534Z,9.00
2018-09-14T04:43:06.567Z,9.70
2018-09-14T04:44:06.600Z,9.80
2018-09-14T04:45:06.634Z,9.40
2018-09-14T04:46:06.668Z,10.10
2018-09-14T04:47:06.702Z,9.60
2018-09-14T04:48:06.736Z,10.00
2018-09-14T04:49:06.770Z,9.50
2018-09-14T04:50:06.803Z,9.70
2018-09-14T04:51:06.836Z,10.00
2018-09-14T04:52:06.873Z,9.10
2018-09-14T04:53:06.920Z,9.70
2018-09-14T04:54:06.953Z,9.20
2018-09-14T04:55:06.971Z,8.10
2018-09-14T04:56:07.005Z,8.40
2018-09-14T04:57:07.041Z,8.60
2018-09-14T04:58:07.073Z,7.60
2018-09-14T04:59:07.109Z,8.50
2018-09-14T05:00:07.141Z,9.10
2018-09-14T05:01:07.174Z,8.50
2018-09-14T05:02:07.208Z,8.20
2018-09-14T05:03:07.303Z,8.60
2018-09-14T05:04:07.274Z,8.50
2018-09-14T05:05:07.308Z,8.70
2018-09-14T05:06:07.341Z,9.50
2018-09-14T05:07:07.442Z,9.20
2018-09-14T05:08:07.413Z,9.60
2018-09-14T05:09:07.442Z,8.90
2018-09-14T05:10:07.477Z,8.80
2018-09-14T05:11:07.512Z,10.20
2018-09-14T05:12:07.544Z,9.50
2018-09-14T05:13:07.578Z,9.40
2018-09-14T05:14:07.677Z,8.90
2018-09-14T05:15:07.646Z,8.60
2018-09-14T05:16:07.682Z,8.60
2018-09-14T05:17:07.716Z,8.40
2018-09-14T05:18:07.746Z,9.50
2018-09-14T05:19:07.780Z,9.20
2018-09-14T05:20:07.814Z,9.60
2018-09-14T05:21:07.847Z,8.70
2018-09-14T05:22:07.881Z,9.20
2018-09-14T05:23:07.915Z,8.40
2018-09-14T05:24:08.012Z,9.00
2018-09-14T05:25:08.076Z,8.80
2018-09-14T05:26:08.019Z,7.90
2018-09-14T05:27:08.051Z,8.30
2018-09-14T05:28:08.083Z,8.80
2018-09-14T05:29:08.117Z,8.50
2018-09-14T05:30:08.151Z,8.40
2018-09-14T05:31:08.185Z,7.90
2018-09-14T05:32:08.220Z,8.00
2018-09-14T05:33:08.252Z,8.10
2018-09-14T05:34:08.286Z,8.60
2018-09-14T05:35:08.321Z,7.90
2018-09-14T05:36:08.353Z,7.40
2018-09-14T05:37:08.387Z,7.80
2018-09-14T05:38:08.442Z,8.00
2018-09-14T05:39:08.455Z,8.00
2018-09-14T05:40:08.490Z,7.80
2018-09-14T05:41:08.526Z,9.00
2018-09-14T05:42:08.556Z,7.50
2018-09-14T05:43:08.590Z,8.60
2018-09-14T05:44:08.625Z,7.40
2018-09-14T05:45:08.658Z,8.30
2018-09-14T05:46:08.692Z,8.50
2018-09-14T05:47:08.725Z,7.80
2018-09-14T05:48:08.759Z,8.50
2018-09-14T05:49:08.793Z,8.00
2018-09-14T05:50:08.828Z,8.20
2018-09-14T05:51:08.865Z,8.30
2018-09-14T05:52:08.895Z,8.70
2018-09-14T05:53:08.929Z,8.80
2018-09-14T05:54:08.963Z,8.70
2018-09-14T05:55:08.998Z,8.00
2018-09-14T05:56:09.031Z,8.60
2018-09-14T05:57:09.064Z,8.20
2018-09-14T05:58:09.099Z,8.40
2018-09-14T05:59:09.134Z,9.30
2018-09-14T06:00:09.167Z,8.20
2018-09-14T06:01:09.205Z,9.00
2018-09-14T06:02:09.236Z,7.90
2018-09-14T06:03:09.271Z,8.50
2018-09-14T06:04:09.303Z,8.10
2018-09-14T06:05:09.338Z,8.00
2018-09-14T06:06:09.373Z,8.30
2018-09-14T06:07:09.408Z,8.00
2018-09-14T06:08:09.441Z,7.40
2018-09-14T06:09:09.474Z,7.90
2018-09-14T06:10:09.509Z,7.40
2018-09-14T06:11:09.593Z,7.90
2018-09-14T06:12:09.576Z,7.50
2018-09-14T06:13:09.611Z,7.30
2018-09-14T06:14:09.645Z,7.80
2018-09-14T06:15:09.680Z,7.10
2018-09-14T06:16:09.717Z,7.60
2018-09-14T06:17:09.845Z,7.80
2018-09-14T06:18:09.782Z,8.20
2018-09-14T06:19:09.818Z,7.70
2018-09-14T06:20:09.850Z,7.80
2018-09-14T06:21:09.884Z,7.60
2018-09-14T06:22:09.918Z,7.50
2018-09-14T06:23:09.956Z,7.50
2018-09-14T06:24:09.986Z,7.30
2018-09-14T06:25:10.024Z,8.10
2018-09-14T06:26:10.055Z,7.70
2018-09-14T06:27:10.090Z,7.30
2018-09-14T06:28:10.125Z,7.70
2018-09-14T06:29:10.161Z,7.20
2018-09-14T06:30:10.192Z,7.50
2018-09-14T06:31:10.226Z,7.60
2018-09-14T06:32:10.260Z,7.10
2018-09-14T06:33:10.294Z,7.00
2018-09-14T06:34:10.333Z,7.90
2018-09-14T06:35:10.364Z,7.50
2018-09-14T06:36:10.397Z,7.70
2018-09-14T06:37:10.431Z,8.20
2018-09-14T06:38:10.507Z,7.20
2018-09-14T06:39:10.500Z,7.40
2018-09-14T06:40:10.535Z,8.30
2018-09-14T06:41:10.569Z,7.60
2018-09-14T06:42:10.603Z,7.00
2018-09-14T06:43:10.638Z,7.50
2018-09-14T06:44:10.673Z,7.70
2018-09-14T06:45:10.824Z,7.00
2018-09-14T06:46:10.743Z,7.00
2018-09-14T06:47:10.778Z,7.10
2018-09-14T06:48:10.811Z,7.10
2018-09-14T06:49:10.843Z,7.20
2018-09-14T06:50:10.879Z,7.30
2018-09-14T06:51:10.913Z,7.20
2018-09-14T06:52:10.968Z,7.00
2018-09-14T06:53:11.008Z,7.50
2018-09-14T06:54:11.018Z,6.80
2018-09-14T06:55:11.051Z,7.10
2018-09-14T06:56:11.084Z,6.70
2018-09-14T06:57:11.118Z,6.90
2018-09-14T06:58:11.153Z,7.40
2018-09-14T06:59:11.189Z,6.60
2018-09-14T07:00:11.327Z,6.70
2018-09-14T07:01:11.256Z,7.20
2018-09-14T07:02:11.292Z,6.70
2018-09-14T07:03:11.325Z,7.30
2018-09-14T07:04:11.362Z,6.70
2018-09-14T07:05:11.396Z,7.40
2018-09-14T07:06:11.430Z,7.20
2018-09-14T07:07:54.013Z,6.90
2018-09-14T07:08:54.047Z,7.40
2018-09-14T07:09:54.082Z,7.20
2018-09-14T07:10:54.116Z,7.00
2018-09-14T07:11:54.151Z,7.20
2018-09-14T07:12:54.187Z,6.90
2018-09-14T07:13:54.225Z,7.80
2018-09-14T07:14:54.255Z,6.80
2018-09-14T07:15:54.290Z,7.40
2018-09-14T07:16:54.325Z,8.00
2018-09-14T07:17:54.360Z,7.60
2018-09-14T07:18:54.393Z,8.20
2018-09-14T07:19:54.429Z,7.50
2018-09-14T07:20:54.463Z,6.60
2018-09-14T07:21:54.542Z,7.60
2018-09-14T07:22:54.537Z,7.50
2018-09-14T07:23:54.567Z,6.70
2018-09-14T07:24:54.686Z,7.20
2018-09-14T07:25:54.638Z,8.30
2018-09-14T07:26:54.696Z,7.40
2018-09-14T07:27:54.710Z,7.80
2018-09-14T07:28:54.817Z,7.40
2018-09-14T07:29:54.798Z,7.70
2018-09-14T07:30:54.812Z,7.70
2018-09-14T07:31:55.157Z,7.10
2018-09-14T07:32:54.881Z,7.80
2018-09-14T07:33:54.917Z,7.40
2018-09-14T07:34:54.954Z,9.00
2018-09-14T07:35:54.986Z,7.60
2018-09-14T07:36:55.021Z,7.90
2018-09-14T07:37:55.058Z,7.40
2018-09-14T07:38:55.107Z,8.70
2018-09-14T07:39:55.126Z,8.10
2018-09-14T07:40:55.161Z,9.10
2018-09-14T07:41:55.196Z,9.70
2018-09-14T07:42:55.235Z,8.70
2018-09-14T07:43:55.266Z,9.00
2018-09-14T07:44:55.302Z,9.20
2018-09-14T07:45:55.338Z,9.00
2018-09-14T07:46:55.372Z,9.00
2018-09-14T07:47:55.408Z,8.50
2018-09-14T07:48:55.443Z,9.50
2018-09-14T07:49:55.478Z,8.90
2018-09-14T07:50:55.514Z,9.40
2018-09-14T07:51:55.550Z,8.60
2018-09-14T07:52:55.586Z,8.40
2018-09-14T07:53:55.620Z,8.30
2018-09-14T07:54:55.986Z,8.60
2018-09-14T07:55:55.916Z,8.20
2018-09-14T07:56:55.752Z,8.50
2018-09-14T07:57:55.764Z,8.70
2018-09-14T07:58:55.800Z,7.60
2018-09-14T07:59:55.844Z,8.40
2018-09-14T08:00:55.873Z,7.60
2018-09-14T08:01:55.908Z,6.80
2018-09-14T08:02:55.944Z,8.00
2018-09-14T08:04:48.555Z,8.40
2018-09-14T08:05:48.593Z,8.40
2018-09-14T08:06:48.631Z,7.00
2018-09-14T08:07:48.665Z,6.50
2018-09-14T08:08:48.703Z,7.50
2018-09-14T08:09:48.739Z,7.10
2018-09-14T08:10:48.775Z,6.30
2018-09-14T08:11:48.823Z,6.80
2018-09-14T08:12:48.850Z,6.50
2018-09-14T08:13:48.885Z,6.40
2018-09-14T08:14:48.928Z,5.40
2018-09-14T08:15:48.961Z,5.40
2018-09-14T08:16:48.998Z,5.30
2018-09-14T08:17:49.034Z,5.60
2018-09-14T08:18:49.074Z,6.30
2018-09-14T08:19:49.109Z,5.30
2018-09-14T08:20:49.146Z,5.80
2018-09-14T08:21:49.323Z,5.90
2018-09-14T08:22:49.225Z,5.60
2018-09-14T08:23:49.259Z,5.80
2018-09-14T08:24:49.298Z,5.40
2018-09-14T08:25:49.337Z,5.40
2018-09-14T08:26:49.379Z,5.50
2018-09-14T08:27:49.414Z,6.40
2018-09-14T08:28:49.448Z,6.80
2018-09-14T08:29:49.487Z,7.00
2018-09-14T08:30:49.525Z,7.40
2018-09-14T08:31:49.563Z,8.40
2018-09-14T08:32:49.600Z,8.50
2018-09-14T08:33:49.641Z,9.10
2018-09-14T08:34:49.677Z,9.30
2018-09-14T08:35:49.717Z,10.80
2018-09-14T08:36:49.755Z,11.30
2018-09-14T08:37:49.792Z,10.90
2018-09-14T08:38:49.833Z,11.20
2018-09-14T08:39:49.871Z,12.20
2018-09-14T08:40:49.927Z,11.80
2018-09-14T08:41:49.947Z,12.10
2018-09-14T08:42:49.988Z,11.20
2018-09-14T08:43:50.025Z,12.00
2018-09-14T08:44:50.063Z,11.00
2018-09-14T08:45:50.102Z,11.00
2018-09-14T08:46:50.147Z,10.80
2018-09-14T08:47:50.244Z,9.90
2018-09-14T08:48:50.221Z,10.70
2018-09-14T08:49:50.258Z,10.30
2018-09-14T08:50:50.296Z,9.70
2018-09-14T08:51:50.340Z,9.30
2018-09-14T08:52:50.375Z,9.20
2018-09-14T08:53:50.423Z,10.50
2018-09-14T08:54:50.454Z,10.30
2018-09-14T08:55:50.493Z,11.20
2018-09-14T08:56:50.531Z,10.70
2018-09-14T08:57:50.577Z,11.20
2018-09-14T08:58:50.609Z,12.30
2018-09-14T08:59:50.651Z,12.70
2018-09-14T09:00:50.739Z,12.50
2018-09-14T09:01:50.728Z,12.70
2018-09-14T09:02:50.766Z,13.30
2018-09-14T09:03:50.809Z,13.40
2018-09-14T09:04:50.846Z,13.00
2018-09-14T09:05:50.884Z,13.30
2018-09-14T09:06:50.922Z,16.00
2018-09-14T09:07:50.961Z,15.30
2018-09-14T09:08:51.002Z,15.10
2018-09-14T09:09:51.040Z,16.10
2018-09-14T09:10:51.080Z,17.00
2018-09-14T09:11:51.119Z,17.00
2018-09-14T09:12:51.157Z,16.80
2018-09-14T09:13:51.198Z,17.10
2018-09-14T09:14:51.238Z,17.50
2018-09-14T09:15:51.277Z,17.30
2018-09-14T09:16:51.316Z,18.10
2018-09-14T09:17:51.426Z,17.50
2018-09-14T09:18:51.396Z,17.70
2018-09-14T09:19:51.477Z,17.20
2018-09-14T09:20:51.478Z,17.50
2018-09-14T09:21:51.567Z,17.80
2018-09-14T09:22:51.555Z,17.20
2018-09-14T09:23:51.596Z,17.80
2018-09-14T09:24:51.634Z,18.20
2018-09-14T09:25:51.677Z,17.10
2018-09-14T09:26:51.717Z,18.30
2018-09-14T09:27:51.756Z,18.70
2018-09-14T09:28:51.794Z,18.90
2018-09-14T09:29:51.836Z,18.00
2018-09-14T09:30:51.873Z,17.90
2018-09-14T09:31:51.913Z,17.70
2018-09-14T09:32:51.952Z,18.80
2018-09-14T09:33:51.993Z,17.70
2018-09-14T09:34:52.033Z,17.70
2018-09-14T09:35:52.072Z,16.80
2018-09-14T09:36:52.112Z,17.90
2018-09-14T09:37:52.152Z,18.10
2018-09-14T09:38:52.191Z,16.90
2018-09-14T09:39:52.231Z,16.70
2018-09-14T09:40:52.273Z,17.90
2018-09-14T09:41:52.312Z,16.40
2018-09-14T09:42:52.353Z,17.50
2018-09-14T09:43:52.427Z,17.20
2018-09-14T09:44:52.434Z,17.10
2018-09-14T09:45:52.476Z,16.30
2018-09-14T09:46:52.518Z,17.90
2018-09-14T09:47:52.561Z,19.20
2018-09-14T09:48:52.608Z,17.50
2018-09-14T09:49:52.646Z,17.70
2018-09-14T09:50:52.726Z,17.80
2018-09-14T09:51:52.735Z,16.00
2018-09-14T09:52:52.778Z,16.50
2018-09-14T09:53:52.823Z,16.60
2018-09-14T09:54:52.869Z,16.20
2018-09-14T09:55:52.913Z,15.30
2018-09-14T09:56:52.958Z,17.50
2018-09-14T09:57:53.006Z,15.90
2018-09-14T09:58:53.050Z,16.30
2018-09-14T09:59:53.119Z,16.20
2018-09-14T10:00:53.167Z,15.80
2018-09-14T10:01:53.212Z,15.30
2018-09-14T10:02:53.262Z,15.90
2018-09-14T10:03:53.320Z,16.60
2018-09-14T10:04:53.330Z,16.00
2018-09-14T10:05:53.375Z,16.50
2018-09-14T10:06:53.422Z,17.60
2018-09-14T10:07:53.467Z,15.90
2018-09-14T10:08:53.715Z,16.40
2018-09-14T10:09:53.556Z,17.40
2018-09-14T10:10:53.600Z,17.00
2018-09-14T10:11:53.665Z,17.60
2018-09-14T10:12:53.892Z,17.00
2018-09-14T10:13:53.760Z,16.80
2018-09-14T10:14:54.025Z,16.00
2018-09-14T10:15:53.822Z,16.10
2018-09-14T10:16:53.865Z,17.70
2018-09-14T10:17:53.907Z,17.60
2018-09-14T10:18:54.281Z,17.20
2018-09-14T10:19:53.997Z,17.70
2018-09-14T10:20:54.065Z,18.20
2018-09-14T10:21:54.081Z,17.70
2018-09-14T10:22:54.126Z,18.20
2018-09-14T10:23:54.170Z,18.60
2018-09-14T10:24:54.215Z,18.00
2018-09-14T10:25:54.260Z,18.00
2018-09-14T10:26:54.306Z,17.90
2018-09-14T10:27:54.349Z,18.40
2018-09-14T10:28:54.467Z,17.10
2018-09-14T10:29:54.438Z,18.00
2018-09-14T10:30:54.483Z,18.20
2018-09-14T10:31:54.529Z,18.30
2018-09-14T10:32:54.572Z,19.30
2018-09-14T10:33:54.621Z,18.50
2018-09-14T10:34:54.668Z,18.20
2018-09-14T10:35:54.706Z,19.40
2018-09-14T10:36:54.975Z,19.10
2018-09-14T10:37:55.014Z,19.70
2018-09-14T10:38:55.263Z,20.60
2018-09-14T10:39:54.878Z,21.60
2018-09-14T10:40:55.010Z,20.00
2018-09-14T10:41:54.965Z,20.20
2018-09-14T10:42:55.080Z,20.30
2018-09-14T10:43:55.050Z,21.50
2018-09-14T10:44:55.094Z,22.30
2018-09-14T10:45:55.135Z,21.90
2018-09-14T10:46:55.382Z,21.90
2018-09-14T10:47:55.221Z,23.60
2018-09-14T10:48:55.337Z,22.10
2018-09-14T10:49:55.337Z,20.90
2018-09-14T10:50:55.349Z,20.70
2018-09-14T10:51:55.392Z,20.90
2018-09-14T10:52:55.437Z,22.50
2018-09-14T10:53:55.480Z,22.70
2018-09-14T10:54:55.588Z,22.50
2018-09-14T10:55:55.571Z,21.60
2018-09-14T10:56:55.616Z,22.10
2018-09-14T10:57:55.662Z,22.00
2018-09-14T10:58:55.711Z,22.20
2018-09-14T11:00:53.409Z,22.00
2018-09-14T11:01:53.401Z,22.40
2018-09-14T11:02:53.451Z,22.90
2018-09-14T11:03:53.496Z,21.20
2018-09-14T11:04:53.544Z,22.20
2018-09-14T11:05:53.592Z,24.10
2018-09-14T11:06:53.676Z,23.20
2018-09-14T11:07:53.688Z,23.80
2018-09-14T11:08:53.735Z,22.80
2018-09-14T11:09:53.833Z,22.20
2018-09-14T11:10:53.832Z,23.40
2018-09-14T11:11:53.882Z,22.80
2018-09-14T11:12:53.982Z,22.80
2018-09-14T11:13:53.979Z,21.30
2018-09-14T11:14:54.029Z,22.80
2018-09-14T11:15:54.079Z,22.10
2018-09-14T11:16:54.128Z,21.40
2018-09-14T11:17:54.183Z,21.40
2018-09-14T11:18:54.236Z,22.00
2018-09-14T11:19:54.276Z,21.80
2018-09-14T11:20:54.328Z,21.60
2018-09-14T11:21:54.376Z,21.20
2018-09-14T11:22:54.426Z,20.80
2018-09-14T11:23:54.475Z,20.40
2018-09-14T11:24:54.633Z,19.40
2018-09-14T11:25:54.576Z,19.40
2018-09-14T11:26:54.625Z,20.90
2018-09-14T11:27:54.679Z,18.60
2018-09-14T11:28:54.726Z,18.30
2018-09-14T11:29:54.778Z,19.10
2018-09-14T11:30:54.828Z,18.40
2018-09-14T11:31:54.883Z,18.50
2018-09-14T11:32:54.930Z,16.90
2018-09-14T11:33:55.049Z,17.10
2018-09-14T11:34:55.033Z,17.20
2018-09-14T11:35:55.088Z,16.50
2018-09-14T11:36:55.137Z,18.10
2018-09-14T11:37:55.276Z,18.30
2018-09-14T11:38:55.239Z,19.10
2018-09-14T11:39:55.292Z,18.80
2018-09-14T11:40:55.342Z,16.60
2018-09-14T11:41:55.394Z,16.30
2018-09-14T11:42:55.446Z,17.10
2018-09-14T11:43:55.496Z,18.30
2018-09-14T11:44:55.548Z,17.50
2018-09-14T11:45:55.668Z,18.00
2018-09-14T11:46:55.648Z,17.60
2018-09-14T11:47:55.698Z,17.90
2018-09-14T11:48:55.748Z,17.00
2018-09-14T11:49:55.797Z,17.50
2018-09-14T11:50:56.747Z,17.90
2018-09-14T11:51:55.894Z,19.40
2018-09-14T11:52:55.945Z,19.90
2018-09-14T11:53:55.995Z,18.80
2018-09-14T11:54:56.038Z,19.10
2018-09-14T11:55:56.088Z,18.30
2018-09-14T11:56:56.163Z,17.60
2018-09-14T11:57:56.185Z,16.90
2018-09-14T11:58:56.234Z,18.40
2018-09-14T11:59:56.283Z,16.70
2018-09-14T12:00:56.332Z,18.30
2018-09-14T12:01:56.381Z,16.60
2018-09-14T12:02:56.431Z,17.50
2018-09-14T12:03:56.480Z,16.30
2018-09-14T12:04:56.531Z,16.60
2018-09-14T12:05:56.579Z,15.20
2018-09-14T12:06:56.629Z,16.30
2018-09-14T12:07:56.679Z,14.60
2018-09-14T12:08:56.728Z,14.80
2018-09-14T12:09:56.780Z,14.20
2018-09-14T12:10:56.829Z,14.40
2018-09-14T12:11:56.883Z,13.40
2018-09-14T12:12:56.932Z,13.20
2018-09-14T12:13:56.988Z,13.30
2018-09-14T12:14:57.038Z,12.80
2018-09-14T12:15:57.086Z,14.40
2018-09-14T12:16:57.138Z,14.50
2018-09-14T12:17:57.188Z,14.30
2018-09-14T12:18:57.240Z,13.10
2018-09-14T12:19:57.293Z,13.40
2018-09-14T12:20:57.345Z,14.60
2018-09-14T12:21:57.397Z,14.70
2018-09-14T12:22:57.448Z,16.00
2018-09-14T12:23:57.499Z,15.40
2018-09-14T12:24:57.551Z,17.90
2018-09-14T12:25:57.602Z,17.00
2018-09-14T12:26:57.656Z,17.70
2018-09-14T12:27:57.704Z,17.40
2018-09-14T12:28:57.754Z,16.30
2018-09-14T12:29:57.803Z,16.20
2018-09-14T12:30:57.854Z,17.50
2018-09-14T12:31:57.902Z,16.60
2018-09-14T12:32:57.953Z,17.80
2018-09-14T12:33:58.000Z,19.10
2018-09-14T12:34:58.052Z,19.70
2018-09-14T12:35:58.097Z,19.80
2018-09-14T12:36:58.145Z,18.80
2018-09-14T12:37:58.243Z,19.50
2018-09-14T12:38:58.240Z,18.60
2018-09-14T12:39:58.287Z,18.20
2018-09-14T12:40:58.337Z,16.50
2018-09-14T12:41:58.385Z,16.50
2018-09-14T12:42:58.427Z,17.90
2018-09-14T12:43:58.475Z,17.30
2018-09-14T12:44:58.522Z,15.60
2018-09-14T12:45:58.568Z,14.40
2018-09-14T12:46:58.614Z,18.50
2018-09-14T12:47:58.661Z,18.50
2018-09-14T12:48:59.722Z,19.00
2018-09-14T12:49:58.755Z,19.00
2018-09-14T12:50:58.797Z,19.00
2018-09-14T12:51:58.843Z,18.10
2018-09-14T12:52:58.888Z,17.80
2018-09-14T12:53:58.935Z,17.60
2018-09-14T12:54:58.978Z,18.80
2018-09-14T12:55:59.027Z,16.80
2018-09-14T12:56:59.069Z,18.10
2018-09-14T12:57:59.316Z,21.30
2018-09-14T12:58:59.159Z,19.80
2018-09-14T12:59:59.530Z,21.10
2018-09-14T13:00:59.248Z,21.70
2018-09-14T13:01:59.291Z,21.30
2018-09-14T13:02:59.335Z,21.90
2018-09-14T13:03:59.378Z,22.20
2018-09-14T13:04:59.423Z,21.80
2018-09-14T13:05:59.480Z,21.80
2018-09-14T13:06:59.508Z,22.20
2018-09-14T13:07:59.553Z,21.60
2018-09-14T13:08:59.621Z,20.70
2018-09-14T13:09:59.643Z,21.30
2018-09-14T13:11:00.189Z,20.40
2018-09-14T13:11:59.725Z,21.60